sensor_id;sensor_type;location;lat;lon;timestamp;P1;durP1;ratioP1;P2;durP2;ratioP2
59089;SDS011;44878;50.102;18.982;2023-04-24T00:00:02;36.40;;;29.58;;
59089;SDS011;44878;50.102;18.982;2023-04-24T00:02:31;34.97;;;30.73;;
59089;SDS011;44878;50.102;18.982;2023-04-24T00:04:58;35.63;;;31.67;;
59089;SDS011;44878;50.102;18.982;2023-04-24T00:07:28;39.25;;;33.70;;
59089;SDS011;44878;50.102;18.982;2023-04-24T00:09:55;38.30;;;33.25;;
59089;SDS011;44878;50.102;18.982;2023-04-24T00:12:21;37.25;;;33.25;;
59089;SDS011;44878;50.102;18.982;2023-04-24T00:14:47;38.50;;;34.40;;
59089;SDS011;44878;50.102;18.982;2023-04-24T00:17:12;37.58;;;32.97;;
59089;SDS011;44878;50.102;18.982;2023-04-24T00:19:38;40.78;;;33.83;;
59089;SDS011;44878;50.102;18.982;2023-04-24T00:22:04;44.00;;;34.78;;
59089;SDS011;44878;50.102;18.982;2023-04-24T00:24:31;36.85;;;32.45;;
59089;SDS011;44878;50.102;18.982;2023-04-24T00:26:56;38.83;;;31.35;;
59089;SDS011;44878;50.102;18.982;2023-04-24T00:29:22;35.00;;;29.85;;
59089;SDS011;44878;50.102;18.982;2023-04-24T00:31:48;34.50;;;30.77;;
59089;SDS011;44878;50.102;18.982;2023-04-24T00:34:14;35.22;;;29.85;;
59089;SDS011;44878;50.102;18.982;2023-04-24T00:36:40;38.10;;;32.90;;
59089;SDS011;44878;50.102;18.982;2023-04-24T00:39:06;40.20;;;33.40;;
59089;SDS011;44878;50.102;18.982;2023-04-24T00:41:34;39.72;;;34.92;;
59089;SDS011;44878;50.102;18.982;2023-04-24T00:44:00;38.78;;;34.53;;
59089;SDS011;44878;50.102;18.982;2023-04-24T00:46:25;39.25;;;35.00;;
59089;SDS011;44878;50.102;18.982;2023-04-24T00:48:52;39.97;;;35.75;;
59089;SDS011;44878;50.102;18.982;2023-04-24T00:51:18;39.88;;;35.63;;
59089;SDS011;44878;50.102;18.982;2023-04-24T00:53:44;41.67;;;37.15;;
59089;SDS011;44878;50.102;18.982;2023-04-24T00:56:10;43.30;;;37.83;;
59089;SDS011;44878;50.102;18.982;2023-04-24T00:58:36;37.25;;;33.33;;
59089;SDS011;44878;50.102;18.982;2023-04-24T01:01:02;40.80;;;36.38;;
59089;SDS011;44878;50.102;18.982;2023-04-24T01:03:29;36.90;;;32.60;;
59089;SDS011;44878;50.102;18.982;2023-04-24T01:05:55;37.50;;;32.97;;
59089;SDS011;44878;50.102;18.982;2023-04-24T01:08:23;37.40;;;32.10;;
59089;SDS011;44878;50.102;18.982;2023-04-24T01:10:49;34.83;;;31.00;;
59089;SDS011;44878;50.102;18.982;2023-04-24T01:13:17;35.60;;;31.00;;
59089;SDS011;44878;50.102;18.982;2023-04-24T01:15:43;34.90;;;31.33;;
59089;SDS011;44878;50.102;18.982;2023-04-24T01:18:09;34.50;;;30.50;;
59089;SDS011;44878;50.102;18.982;2023-04-24T01:20:35;31.52;;;28.13;;
59089;SDS011;44878;50.102;18.982;2023-04-24T01:23:08;32.05;;;28.17;;
59089;SDS011;44878;50.102;18.982;2023-04-24T01:25:34;31.23;;;27.83;;
59089;SDS011;44878;50.102;18.982;2023-04-24T01:28:00;27.83;;;24.13;;
59089;SDS011;44878;50.102;18.982;2023-04-24T01:30:26;27.65;;;24.33;;
59089;SDS011;44878;50.102;18.982;2023-04-24T01:32:52;28.63;;;25.33;;
59089;SDS011;44878;50.102;18.982;2023-04-24T01:35:18;28.30;;;22.92;;
59089;SDS011;44878;50.102;18.982;2023-04-24T01:37:45;27.88;;;24.08;;
59089;SDS011;44878;50.102;18.982;2023-04-24T01:40:11;28.15;;;23.40;;
59089;SDS011;44878;50.102;18.982;2023-04-24T01:42:37;27.38;;;23.70;;
59089;SDS011;44878;50.102;18.982;2023-04-24T01:45:03;27.40;;;23.05;;
59089;SDS011;44878;50.102;18.982;2023-04-24T01:47:31;26.50;;;22.80;;
59089;SDS011;44878;50.102;18.982;2023-04-24T01:49:57;25.83;;;23.13;;
59089;SDS011;44878;50.102;18.982;2023-04-24T01:52:23;26.52;;;22.60;;
59089;SDS011;44878;50.102;18.982;2023-04-24T01:54:49;28.55;;;21.90;;
59089;SDS011;44878;50.102;18.982;2023-04-24T01:57:15;26.90;;;21.55;;
59089;SDS011;44878;50.102;18.982;2023-04-24T01:59:41;25.63;;;22.55;;
59089;SDS011;44878;50.102;18.982;2023-04-24T02:02:07;23.23;;;20.77;;
59089;SDS011;44878;50.102;18.982;2023-04-24T02:04:33;22.15;;;19.85;;
59089;SDS011;44878;50.102;18.982;2023-04-24T02:06:59;21.02;;;18.83;;
59089;SDS011;44878;50.102;18.982;2023-04-24T02:09:25;23.73;;;19.08;;
59089;SDS011;44878;50.102;18.982;2023-04-24T02:11:51;21.95;;;19.30;;
59089;SDS011;44878;50.102;18.982;2023-04-24T02:14:16;23.27;;;19.55;;
59089;SDS011;44878;50.102;18.982;2023-04-24T02:16:43;22.52;;;19.23;;
59089;SDS011;44878;50.102;18.982;2023-04-24T02:19:09;23.00;;;19.88;;
59089;SDS011;44878;50.102;18.982;2023-04-24T02:21:38;24.02;;;19.10;;
59089;SDS011;44878;50.102;18.982;2023-04-24T02:24:04;24.73;;;20.55;;
59089;SDS011;44878;50.102;18.982;2023-04-24T02:26:30;22.17;;;19.42;;
59089;SDS011;44878;50.102;18.982;2023-04-24T02:28:57;23.07;;;18.83;;
59089;SDS011;44878;50.102;18.982;2023-04-24T02:31:23;22.23;;;19.75;;
59089;SDS011;44878;50.102;18.982;2023-04-24T02:33:48;22.08;;;19.13;;
59089;SDS011;44878;50.102;18.982;2023-04-24T02:36:14;23.63;;;19.20;;
59089;SDS011;44878;50.102;18.982;2023-04-24T02:38:40;21.25;;;18.73;;
59089;SDS011;44878;50.102;18.982;2023-04-24T02:41:06;19.85;;;17.77;;
59089;SDS011;44878;50.102;18.982;2023-04-24T02:43:32;22.65;;;18.55;;
59089;SDS011;44878;50.102;18.982;2023-04-24T02:45:59;21.92;;;18.33;;
59089;SDS011;44878;50.102;18.982;2023-04-24T02:48:25;19.95;;;17.90;;
59089;SDS011;44878;50.102;18.982;2023-04-24T02:50:51;19.48;;;17.38;;
59089;SDS011;44878;50.102;18.982;2023-04-24T02:53:16;20.98;;;17.90;;
59089;SDS011;44878;50.102;18.982;2023-04-24T02:55:42;19.75;;;17.58;;
59089;SDS011;44878;50.102;18.982;2023-04-24T02:58:08;21.92;;;17.23;;
59089;SDS011;44878;50.102;18.982;2023-04-24T03:00:34;19.95;;;16.05;;
59089;SDS011;44878;50.102;18.982;2023-04-24T03:03:00;19.90;;;17.17;;
59089;SDS011;44878;50.102;18.982;2023-04-24T03:05:26;19.55;;;16.70;;
59089;SDS011;44878;50.102;18.982;2023-04-24T03:07:52;18.58;;;16.65;;
59089;SDS011;44878;50.102;18.982;2023-04-24T03:10:18;18.20;;;16.38;;
59089;SDS011;44878;50.102;18.982;2023-04-24T03:12:44;20.70;;;16.98;;
59089;SDS011;44878;50.102;18.982;2023-04-24T03:15:10;19.83;;;16.90;;
59089;SDS011;44878;50.102;18.982;2023-04-24T03:17:36;17.90;;;16.00;;
59089;SDS011;44878;50.102;18.982;2023-04-24T03:20:02;18.23;;;15.82;;
59089;SDS011;44878;50.102;18.982;2023-04-24T03:22:30;19.25;;;16.98;;
59089;SDS011;44878;50.102;18.982;2023-04-24T03:24:58;20.05;;;15.68;;
59089;SDS011;44878;50.102;18.982;2023-04-24T03:27:23;20.38;;;16.52;;
59089;SDS011;44878;50.102;18.982;2023-04-24T03:29:50;19.98;;;17.10;;
59089;SDS011;44878;50.102;18.982;2023-04-24T03:32:21;17.27;;;15.48;;
59089;SDS011;44878;50.102;18.982;2023-04-24T03:34:48;17.55;;;15.73;;
59089;SDS011;44878;50.102;18.982;2023-04-24T03:37:14;17.30;;;15.05;;
59089;SDS011;44878;50.102;18.982;2023-04-24T03:39:40;18.92;;;15.65;;
59089;SDS011;44878;50.102;18.982;2023-04-24T03:42:06;18.25;;;16.02;;
59089;SDS011;44878;50.102;18.982;2023-04-24T03:46:59;19.35;;;16.70;;
59089;SDS011;44878;50.102;18.982;2023-04-24T03:49:25;22.33;;;16.10;;
59089;SDS011;44878;50.102;18.982;2023-04-24T03:51:51;19.27;;;16.55;;
59089;SDS011;44878;50.102;18.982;2023-04-24T03:54:18;20.70;;;16.20;;
59089;SDS011;44878;50.102;18.982;2023-04-24T03:56:44;19.88;;;16.27;;
59089;SDS011;44878;50.102;18.982;2023-04-24T03:59:10;20.13;;;15.52;;
59089;SDS011;44878;50.102;18.982;2023-04-24T04:01:36;17.25;;;15.60;;
59089;SDS011;44878;50.102;18.982;2023-04-24T04:04:03;15.43;;;13.88;;
59089;SDS011;44878;50.102;18.982;2023-04-24T04:06:28;18.45;;;14.45;;
59089;SDS011;44878;50.102;18.982;2023-04-24T04:08:56;17.20;;;15.20;;
59089;SDS011;44878;50.102;18.982;2023-04-24T04:11:22;18.70;;;14.95;;
59089;SDS011;44878;50.102;18.982;2023-04-24T04:13:48;19.30;;;15.52;;
59089;SDS011;44878;50.102;18.982;2023-04-24T04:16:14;17.92;;;14.95;;
59089;SDS011;44878;50.102;18.982;2023-04-24T04:18:42;18.92;;;15.63;;
59089;SDS011;44878;50.102;18.982;2023-04-24T04:21:08;21.13;;;15.98;;
59089;SDS011;44878;50.102;18.982;2023-04-24T04:23:34;19.00;;;15.48;;
59089;SDS011;44878;50.102;18.982;2023-04-24T04:26:00;20.95;;;16.42;;
59089;SDS011;44878;50.102;18.982;2023-04-24T04:28:26;17.48;;;15.45;;
59089;SDS011;44878;50.102;18.982;2023-04-24T04:30:52;22.58;;;16.33;;
59089;SDS011;44878;50.102;18.982;2023-04-24T04:33:23;20.17;;;16.08;;
59089;SDS011;44878;50.102;18.982;2023-04-24T04:35:49;18.60;;;16.27;;
59089;SDS011;44878;50.102;18.982;2023-04-24T04:38:15;20.05;;;15.75;;
59089;SDS011;44878;50.102;18.982;2023-04-24T04:40:42;17.33;;;15.18;;
59089;SDS011;44878;50.102;18.982;2023-04-24T04:43:11;21.25;;;15.38;;
59089;SDS011;44878;50.102;18.982;2023-04-24T04:45:38;21.77;;;17.25;;
59089;SDS011;44878;50.102;18.982;2023-04-24T04:48:07;23.95;;;16.00;;
59089;SDS011;44878;50.102;18.982;2023-04-24T04:50:38;21.73;;;16.98;;
59089;SDS011;44878;50.102;18.982;2023-04-24T04:53:04;21.20;;;16.88;;
59089;SDS011;44878;50.102;18.982;2023-04-24T04:55:30;20.27;;;17.02;;
59089;SDS011;44878;50.102;18.982;2023-04-24T04:57:56;22.58;;;16.92;;
59089;SDS011;44878;50.102;18.982;2023-04-24T05:00:22;27.92;;;17.38;;
59089;SDS011;44878;50.102;18.982;2023-04-24T05:02:51;23.20;;;16.50;;
59089;SDS011;44878;50.102;18.982;2023-04-24T05:05:17;19.83;;;17.10;;
59089;SDS011;44878;50.102;18.982;2023-04-24T05:07:43;23.10;;;17.40;;
59089;SDS011;44878;50.102;18.982;2023-04-24T05:10:09;23.05;;;16.20;;
59089;SDS011;44878;50.102;18.982;2023-04-24T05:12:35;22.80;;;15.70;;
59089;SDS011;44878;50.102;18.982;2023-04-24T05:15:01;21.38;;;15.65;;
59089;SDS011;44878;50.102;18.982;2023-04-24T05:17:28;20.30;;;14.95;;
59089;SDS011;44878;50.102;18.982;2023-04-24T05:19:54;28.05;;;15.35;;
59089;SDS011;44878;50.102;18.982;2023-04-24T05:22:20;21.95;;;14.48;;
59089;SDS011;44878;50.102;18.982;2023-04-24T05:24:46;21.73;;;14.68;;
59089;SDS011;44878;50.102;18.982;2023-04-24T05:27:13;19.87;;;13.77;;
59089;SDS011;44878;50.102;18.982;2023-04-24T05:29:39;19.88;;;14.18;;
59089;SDS011;44878;50.102;18.982;2023-04-24T05:32:05;16.08;;;12.80;;
59089;SDS011;44878;50.102;18.982;2023-04-24T05:34:31;16.65;;;12.93;;
59089;SDS011;44878;50.102;18.982;2023-04-24T05:36:57;20.05;;;14.07;;
59089;SDS011;44878;50.102;18.982;2023-04-24T05:39:23;18.75;;;14.13;;
59089;SDS011;44878;50.102;18.982;2023-04-24T05:41:51;17.77;;;13.40;;
59089;SDS011;44878;50.102;18.982;2023-04-24T05:44:16;18.13;;;13.55;;
59089;SDS011;44878;50.102;18.982;2023-04-24T05:46:42;17.52;;;14.20;;
59089;SDS011;44878;50.102;18.982;2023-04-24T05:49:08;18.80;;;14.45;;
59089;SDS011;44878;50.102;18.982;2023-04-24T05:51:34;20.75;;;13.68;;
59089;SDS011;44878;50.102;18.982;2023-04-24T05:54:00;17.95;;;13.80;;
59089;SDS011;44878;50.102;18.982;2023-04-24T05:56:27;15.27;;;12.75;;
59089;SDS011;44878;50.102;18.982;2023-04-24T05:58:53;23.20;;;13.23;;
59089;SDS011;44878;50.102;18.982;2023-04-24T06:01:19;15.20;;;12.82;;
59089;SDS011;44878;50.102;18.982;2023-04-24T06:03:45;31.60;;;26.65;;
59089;SDS011;44878;50.102;18.982;2023-04-24T06:06:10;17.00;;;12.60;;
59089;SDS011;44878;50.102;18.982;2023-04-24T06:08:36;21.33;;;11.82;;
59089;SDS011;44878;50.102;18.982;2023-04-24T06:11:02;14.82;;;11.85;;
59089;SDS011;44878;50.102;18.982;2023-04-24T06:13:28;18.17;;;11.88;;
59089;SDS011;44878;50.102;18.982;2023-04-24T06:15:54;16.85;;;11.35;;
59089;SDS011;44878;50.102;18.982;2023-04-24T06:18:20;16.50;;;10.55;;
59089;SDS011;44878;50.102;18.982;2023-04-24T06:20:46;16.80;;;10.82;;
59089;SDS011;44878;50.102;18.982;2023-04-24T06:23:12;14.40;;;10.70;;
59089;SDS011;44878;50.102;18.982;2023-04-24T06:25:38;11.48;;;9.77;;
59089;SDS011;44878;50.102;18.982;2023-04-24T06:28:04;12.82;;;9.45;;
59089;SDS011;44878;50.102;18.982;2023-04-24T06:30:30;19.48;;;9.70;;
59089;SDS011;44878;50.102;18.982;2023-04-24T06:32:56;17.83;;;10.38;;
59089;SDS011;44878;50.102;18.982;2023-04-24T06:35:22;13.23;;;9.60;;
59089;SDS011;44878;50.102;18.982;2023-04-24T06:37:48;15.60;;;9.40;;
59089;SDS011;44878;50.102;18.982;2023-04-24T06:40:14;16.37;;;9.97;;
59089;SDS011;44878;50.102;18.982;2023-04-24T06:42:40;14.73;;;8.70;;
59089;SDS011;44878;50.102;18.982;2023-04-24T06:45:06;17.35;;;14.75;;
59089;SDS011;44878;50.102;18.982;2023-04-24T06:47:32;10.97;;;8.93;;
59089;SDS011;44878;50.102;18.982;2023-04-24T06:49:58;14.10;;;8.70;;
59089;SDS011;44878;50.102;18.982;2023-04-24T06:52:24;13.10;;;9.02;;
59089;SDS011;44878;50.102;18.982;2023-04-24T06:54:50;11.35;;;7.78;;
59089;SDS011;44878;50.102;18.982;2023-04-24T06:57:16;13.00;;;7.93;;
59089;SDS011;44878;50.102;18.982;2023-04-24T06:59:42;11.60;;;8.13;;
59089;SDS011;44878;50.102;18.982;2023-04-24T07:02:08;9.93;;;7.60;;
59089;SDS011;44878;50.102;18.982;2023-04-24T07:04:34;11.57;;;7.57;;
59089;SDS011;44878;50.102;18.982;2023-04-24T07:06:59;11.53;;;8.80;;
59089;SDS011;44878;50.102;18.982;2023-04-24T07:09:26;9.77;;;8.48;;
59089;SDS011;44878;50.102;18.982;2023-04-24T07:11:52;12.73;;;8.82;;
59089;SDS011;44878;50.102;18.982;2023-04-24T07:14:19;12.55;;;8.10;;
59089;SDS011;44878;50.102;18.982;2023-04-24T07:16:45;12.07;;;8.07;;
59089;SDS011;44878;50.102;18.982;2023-04-24T07:19:11;18.40;;;8.45;;
59089;SDS011;44878;50.102;18.982;2023-04-24T07:21:37;11.15;;;8.10;;
59089;SDS011;44878;50.102;18.982;2023-04-24T07:24:03;13.25;;;8.38;;
59089;SDS011;44878;50.102;18.982;2023-04-24T07:26:32;10.65;;;7.95;;
59089;SDS011;44878;50.102;18.982;2023-04-24T07:28:58;11.15;;;7.72;;
59089;SDS011;44878;50.102;18.982;2023-04-24T07:31:23;9.02;;;6.35;;
59089;SDS011;44878;50.102;18.982;2023-04-24T07:33:49;10.50;;;7.75;;
59089;SDS011;44878;50.102;18.982;2023-04-24T07:36:19;9.30;;;7.40;;
59089;SDS011;44878;50.102;18.982;2023-04-24T07:38:45;10.82;;;7.68;;
59089;SDS011;44878;50.102;18.982;2023-04-24T07:41:12;10.55;;;7.10;;
59089;SDS011;44878;50.102;18.982;2023-04-24T07:46:04;11.47;;;7.43;;
59089;SDS011;44878;50.102;18.982;2023-04-24T07:48:30;11.48;;;7.25;;
59089;SDS011;44878;50.102;18.982;2023-04-24T07:50:59;11.38;;;7.90;;
59089;SDS011;44878;50.102;18.982;2023-04-24T07:53:25;11.02;;;7.57;;
59089;SDS011;44878;50.102;18.982;2023-04-24T07:55:51;8.48;;;6.70;;
59089;SDS011;44878;50.102;18.982;2023-04-24T07:58:17;9.77;;;6.80;;
59089;SDS011;44878;50.102;18.982;2023-04-24T08:00:42;10.18;;;7.45;;
59089;SDS011;44878;50.102;18.982;2023-04-24T08:03:08;10.50;;;6.95;;
59089;SDS011;44878;50.102;18.982;2023-04-24T08:05:34;9.80;;;7.15;;
59089;SDS011;44878;50.102;18.982;2023-04-24T08:08:00;9.80;;;6.78;;
59089;SDS011;44878;50.102;18.982;2023-04-24T08:10:26;11.20;;;7.20;;
59089;SDS011;44878;50.102;18.982;2023-04-24T08:12:52;13.70;;;6.78;;
59089;SDS011;44878;50.102;18.982;2023-04-24T08:15:18;12.18;;;6.20;;
59089;SDS011;44878;50.102;18.982;2023-04-24T08:17:44;10.13;;;6.53;;
59089;SDS011;44878;50.102;18.982;2023-04-24T08:20:10;9.05;;;5.30;;
59089;SDS011;44878;50.102;18.982;2023-04-24T08:22:39;8.65;;;5.60;;
59089;SDS011;44878;50.102;18.982;2023-04-24T08:25:06;7.45;;;5.70;;
59089;SDS011;44878;50.102;18.982;2023-04-24T08:27:32;7.43;;;5.07;;
59089;SDS011;44878;50.102;18.982;2023-04-24T08:29:57;6.03;;;4.40;;
59089;SDS011;44878;50.102;18.982;2023-04-24T08:32:25;6.97;;;5.00;;
59089;SDS011;44878;50.102;18.982;2023-04-24T08:34:54;6.53;;;4.63;;
59089;SDS011;44878;50.102;18.982;2023-04-24T08:37:22;8.05;;;4.43;;
59089;SDS011;44878;50.102;18.982;2023-04-24T08:39:48;8.57;;;5.40;;
59089;SDS011;44878;50.102;18.982;2023-04-24T08:42:15;6.75;;;4.82;;
59089;SDS011;44878;50.102;18.982;2023-04-24T08:44:40;6.07;;;5.40;;
59089;SDS011;44878;50.102;18.982;2023-04-24T08:47:07;9.02;;;5.60;;
59089;SDS011;44878;50.102;18.982;2023-04-24T08:49:33;8.93;;;5.33;;
59089;SDS011;44878;50.102;18.982;2023-04-24T08:51:59;8.93;;;5.15;;
59089;SDS011;44878;50.102;18.982;2023-04-24T08:54:25;8.00;;;5.32;;
59089;SDS011;44878;50.102;18.982;2023-04-24T08:56:52;6.82;;;5.35;;
59089;SDS011;44878;50.102;18.982;2023-04-24T08:59:19;10.48;;;5.40;;
59089;SDS011;44878;50.102;18.982;2023-04-24T09:01:45;9.10;;;5.27;;
59089;SDS011;44878;50.102;18.982;2023-04-24T09:04:11;6.30;;;4.85;;
59089;SDS011;44878;50.102;18.982;2023-04-24T09:06:39;9.43;;;4.80;;
59089;SDS011;44878;50.102;18.982;2023-04-24T09:09:05;7.85;;;5.00;;
59089;SDS011;44878;50.102;18.982;2023-04-24T09:11:32;5.68;;;4.72;;
59089;SDS011;44878;50.102;18.982;2023-04-24T09:14:00;5.88;;;4.53;;
59089;SDS011;44878;50.102;18.982;2023-04-24T09:16:26;6.65;;;5.03;;
59089;SDS011;44878;50.102;18.982;2023-04-24T09:18:52;6.50;;;4.95;;
59089;SDS011;44878;50.102;18.982;2023-04-24T09:21:20;5.20;;;4.30;;
59089;SDS011;44878;50.102;18.982;2023-04-24T09:23:46;8.20;;;5.05;;
59089;SDS011;44878;50.102;18.982;2023-04-24T09:26:12;6.03;;;4.68;;
59089;SDS011;44878;50.102;18.982;2023-04-24T09:28:40;6.45;;;4.18;;
59089;SDS011;44878;50.102;18.982;2023-04-24T09:31:13;7.18;;;4.13;;
59089;SDS011;44878;50.102;18.982;2023-04-24T09:33:53;6.40;;;4.43;;
59089;SDS011;44878;50.102;18.982;2023-04-24T09:36:29;6.57;;;4.50;;
59089;SDS011;44878;50.102;18.982;2023-04-24T09:38:58;8.98;;;4.40;;
59089;SDS011;44878;50.102;18.982;2023-04-24T09:41:24;8.65;;;4.55;;
59089;SDS011;44878;50.102;18.982;2023-04-24T09:43:51;10.50;;;5.05;;
59089;SDS011;44878;50.102;18.982;2023-04-24T09:46:19;10.90;;;4.72;;
59089;SDS011;44878;50.102;18.982;2023-04-24T09:48:45;8.70;;;4.30;;
59089;SDS011;44878;50.102;18.982;2023-04-24T09:51:11;8.68;;;4.65;;
59089;SDS011;44878;50.102;18.982;2023-04-24T09:53:37;7.60;;;4.72;;
59089;SDS011;44878;50.102;18.982;2023-04-24T09:56:08;8.07;;;4.68;;
59089;SDS011;44878;50.102;18.982;2023-04-24T09:58:38;5.95;;;4.38;;
59089;SDS011;44878;50.102;18.982;2023-04-24T10:01:04;6.30;;;4.22;;
59089;SDS011;44878;50.102;18.982;2023-04-24T10:03:30;5.57;;;4.20;;
59089;SDS011;44878;50.102;18.982;2023-04-24T10:06:00;8.48;;;4.95;;
59089;SDS011;44878;50.102;18.982;2023-04-24T10:08:26;6.38;;;4.35;;
59089;SDS011;44878;50.102;18.982;2023-04-24T10:10:58;8.25;;;5.28;;
59089;SDS011;44878;50.102;18.982;2023-04-24T10:13:25;5.90;;;4.17;;
59089;SDS011;44878;50.102;18.982;2023-04-24T10:15:51;5.97;;;4.60;;
59089;SDS011;44878;50.102;18.982;2023-04-24T10:18:17;6.38;;;4.93;;
59089;SDS011;44878;50.102;18.982;2023-04-24T10:20:43;6.88;;;5.00;;
59089;SDS011;44878;50.102;18.982;2023-04-24T10:23:09;9.57;;;6.00;;
59089;SDS011;44878;50.102;18.982;2023-04-24T10:25:36;10.77;;;5.45;;
59089;SDS011;44878;50.102;18.982;2023-04-24T10:28:02;7.25;;;5.45;;
59089;SDS011;44878;50.102;18.982;2023-04-24T10:30:32;7.15;;;4.75;;
59089;SDS011;44878;50.102;18.982;2023-04-24T10:33:02;5.85;;;4.85;;
59089;SDS011;44878;50.102;18.982;2023-04-24T10:35:32;7.95;;;5.70;;
59089;SDS011;44878;50.102;18.982;2023-04-24T10:38:07;5.75;;;5.15;;
59089;SDS011;44878;50.102;18.982;2023-04-24T10:40:35;7.53;;;5.53;;
59089;SDS011;44878;50.102;18.982;2023-04-24T10:43:04;7.50;;;5.70;;
59089;SDS011;44878;50.102;18.982;2023-04-24T10:45:36;6.43;;;5.57;;
59089;SDS011;44878;50.102;18.982;2023-04-24T10:48:06;6.85;;;5.47;;
59089;SDS011;44878;50.102;18.982;2023-04-24T10:50:43;6.82;;;5.72;;
59089;SDS011;44878;50.102;18.982;2023-04-24T10:53:16;7.70;;;5.50;;
59089;SDS011;44878;50.102;18.982;2023-04-24T10:55:49;7.93;;;6.10;;
59089;SDS011;44878;50.102;18.982;2023-04-24T10:58:16;8.43;;;6.22;;
59089;SDS011;44878;50.102;18.982;2023-04-24T11:00:43;7.55;;;5.63;;
59089;SDS011;44878;50.102;18.982;2023-04-24T11:05:49;9.98;;;6.20;;
59089;SDS011;44878;50.102;18.982;2023-04-24T11:08:16;6.35;;;5.68;;
59089;SDS011;44878;50.102;18.982;2023-04-24T11:10:50;8.32;;;5.47;;
59089;SDS011;44878;50.102;18.982;2023-04-24T11:13:22;6.03;;;4.97;;
59089;SDS011;44878;50.102;18.982;2023-04-24T11:18:39;6.13;;;4.88;;
59089;SDS011;44878;50.102;18.982;2023-04-24T11:21:12;6.45;;;4.85;;
59089;SDS011;44878;50.102;18.982;2023-04-24T11:23:39;7.53;;;5.30;;
59089;SDS011;44878;50.102;18.982;2023-04-24T11:26:23;6.63;;;4.32;;
59089;SDS011;44878;50.102;18.982;2023-04-24T11:29:06;6.35;;;5.57;;
59089;SDS011;44878;50.102;18.982;2023-04-24T11:31:39;5.55;;;4.95;;
59089;SDS011;44878;50.102;18.982;2023-04-24T11:34:10;8.38;;;5.22;;
59089;SDS011;44878;50.102;18.982;2023-04-24T11:36:37;7.72;;;5.10;;
59089;SDS011;44878;50.102;18.982;2023-04-24T11:39:03;6.22;;;5.30;;
59089;SDS011;44878;50.102;18.982;2023-04-24T11:41:29;10.45;;;5.60;;
59089;SDS011;44878;50.102;18.982;2023-04-24T11:43:55;6.70;;;5.00;;
59089;SDS011;44878;50.102;18.982;2023-04-24T11:46:22;9.70;;;5.43;;
59089;SDS011;44878;50.102;18.982;2023-04-24T11:48:48;9.82;;;6.32;;
59089;SDS011;44878;50.102;18.982;2023-04-24T11:51:14;6.75;;;5.20;;
59089;SDS011;44878;50.102;18.982;2023-04-24T11:53:40;7.20;;;5.75;;
59089;SDS011;44878;50.102;18.982;2023-04-24T11:56:06;9.95;;;6.22;;
59089;SDS011;44878;50.102;18.982;2023-04-24T11:58:37;6.97;;;5.47;;
59089;SDS011;44878;50.102;18.982;2023-04-24T12:01:04;7.82;;;5.25;;
59089;SDS011;44878;50.102;18.982;2023-04-24T12:03:30;5.90;;;5.00;;
59089;SDS011;44878;50.102;18.982;2023-04-24T12:06:06;6.82;;;5.50;;
59089;SDS011;44878;50.102;18.982;2023-04-24T12:08:33;7.05;;;5.15;;
59089;SDS011;44878;50.102;18.982;2023-04-24T12:11:03;6.47;;;5.40;;
59089;SDS011;44878;50.102;18.982;2023-04-24T12:13:29;7.38;;;5.43;;
59089;SDS011;44878;50.102;18.982;2023-04-24T12:15:56;6.80;;;5.47;;
59089;SDS011;44878;50.102;18.982;2023-04-24T12:18:22;5.50;;;4.90;;
59089;SDS011;44878;50.102;18.982;2023-04-24T12:20:48;5.30;;;4.80;;
59089;SDS011;44878;50.102;18.982;2023-04-24T12:23:14;5.30;;;4.32;;
59089;SDS011;44878;50.102;18.982;2023-04-24T12:25:41;4.97;;;4.40;;
59089;SDS011;44878;50.102;18.982;2023-04-24T12:30:34;6.57;;;3.95;;
59089;SDS011;44878;50.102;18.982;2023-04-24T12:33:00;6.45;;;4.10;;
59089;SDS011;44878;50.102;18.982;2023-04-24T12:35:30;4.30;;;3.87;;
59089;SDS011;44878;50.102;18.982;2023-04-24T12:38:06;7.13;;;4.78;;
59089;SDS011;44878;50.102;18.982;2023-04-24T12:40:33;5.80;;;5.10;;
59089;SDS011;44878;50.102;18.982;2023-04-24T12:42:59;6.75;;;5.68;;
59089;SDS011;44878;50.102;18.982;2023-04-24T12:45:25;7.82;;;5.60;;
59089;SDS011;44878;50.102;18.982;2023-04-24T12:50:19;8.50;;;5.65;;
59089;SDS011;44878;50.102;18.982;2023-04-24T12:52:45;8.75;;;7.03;;
59089;SDS011;44878;50.102;18.982;2023-04-24T12:55:11;10.60;;;8.13;;
59089;SDS011;44878;50.102;18.982;2023-04-24T12:57:37;7.88;;;6.15;;
59089;SDS011;44878;50.102;18.982;2023-04-24T13:00:04;6.72;;;6.13;;
59089;SDS011;44878;50.102;18.982;2023-04-24T13:02:31;8.82;;;5.88;;
59089;SDS011;44878;50.102;18.982;2023-04-24T13:04:57;7.40;;;6.53;;
59089;SDS011;44878;50.102;18.982;2023-04-24T13:07:24;8.18;;;6.10;;
59089;SDS011;44878;50.102;18.982;2023-04-24T13:09:50;7.80;;;6.38;;
59089;SDS011;44878;50.102;18.982;2023-04-24T13:12:16;6.15;;;5.60;;
59089;SDS011;44878;50.102;18.982;2023-04-24T13:14:42;10.63;;;6.10;;
59089;SDS011;44878;50.102;18.982;2023-04-24T13:17:08;7.05;;;6.22;;
59089;SDS011;44878;50.102;18.982;2023-04-24T13:19:35;6.80;;;6.00;;
59089;SDS011;44878;50.102;18.982;2023-04-24T13:22:01;8.90;;;6.75;;
59089;SDS011;44878;50.102;18.982;2023-04-24T13:24:27;8.05;;;6.50;;
59089;SDS011;44878;50.102;18.982;2023-04-24T13:26:53;7.40;;;6.50;;
59089;SDS011;44878;50.102;18.982;2023-04-24T13:29:19;8.73;;;6.65;;
59089;SDS011;44878;50.102;18.982;2023-04-24T13:31:51;7.82;;;7.13;;
59089;SDS011;44878;50.102;18.982;2023-04-24T13:34:19;8.63;;;7.03;;
59089;SDS011;44878;50.102;18.982;2023-04-24T13:36:45;8.40;;;6.82;;
59089;SDS011;44878;50.102;18.982;2023-04-24T13:39:11;7.93;;;7.10;;
59089;SDS011;44878;50.102;18.982;2023-04-24T13:41:42;9.70;;;7.07;;
59089;SDS011;44878;50.102;18.982;2023-04-24T13:44:08;8.45;;;7.65;;
59089;SDS011;44878;50.102;18.982;2023-04-24T13:46:34;8.52;;;7.72;;
59089;SDS011;44878;50.102;18.982;2023-04-24T13:49:01;9.52;;;7.22;;
59089;SDS011;44878;50.102;18.982;2023-04-24T13:51:27;9.20;;;7.90;;
59089;SDS011;44878;50.102;18.982;2023-04-24T13:53:53;8.88;;;7.45;;
59089;SDS011;44878;50.102;18.982;2023-04-24T13:56:19;11.57;;;8.57;;
59089;SDS011;44878;50.102;18.982;2023-04-24T13:58:46;8.40;;;7.55;;
59089;SDS011;44878;50.102;18.982;2023-04-24T14:01:14;10.32;;;7.60;;
59089;SDS011;44878;50.102;18.982;2023-04-24T14:03:41;7.70;;;6.97;;
59089;SDS011;44878;50.102;18.982;2023-04-24T14:06:08;10.18;;;6.15;;
59089;SDS011;44878;50.102;18.982;2023-04-24T14:08:34;8.65;;;6.55;;
59089;SDS011;44878;50.102;18.982;2023-04-24T14:11:00;14.57;;;12.20;;
59089;SDS011;44878;50.102;18.982;2023-04-24T14:13:26;6.25;;;5.35;;
59089;SDS011;44878;50.102;18.982;2023-04-24T14:15:52;7.45;;;5.13;;
59089;SDS011;44878;50.102;18.982;2023-04-24T14:18:19;5.10;;;4.60;;
59089;SDS011;44878;50.102;18.982;2023-04-24T14:20:44;6.00;;;4.50;;
59089;SDS011;44878;50.102;18.982;2023-04-24T14:23:11;5.10;;;4.57;;
59089;SDS011;44878;50.102;18.982;2023-04-24T14:25:36;4.78;;;4.00;;
59089;SDS011;44878;50.102;18.982;2023-04-24T14:28:03;7.10;;;4.78;;
59089;SDS011;44878;50.102;18.982;2023-04-24T14:30:30;5.38;;;4.30;;
59089;SDS011;44878;50.102;18.982;2023-04-24T14:32:56;5.20;;;4.55;;